createdAt,value
2017-05-15T00:01:06.862Z,16.90
2017-05-15T00:03:34.248Z,16.80
2017-05-15T00:06:01.936Z,16.70
2017-05-15T00:08:29.805Z,16.60
2017-05-15T00:10:57.235Z,16.60
2017-05-15T00:13:24.639Z,16.50
2017-05-15T00:15:53.045Z,16.50
2017-05-15T00:18:21.483Z,16.50
2017-05-15T00:20:49.055Z,16.50
2017-05-15T00:23:16.467Z,16.40
2017-05-15T00:25:43.881Z,16.30
2017-05-15T00:28:12.405Z,16.30
2017-05-15T00:30:40.688Z,16.40
2017-05-15T00:33:08.067Z,16.40
2017-05-15T00:35:36.267Z,16.40
2017-05-15T00:38:03.887Z,16.40
2017-05-15T00:40:32.107Z,16.40
2017-05-15T00:43:02.035Z,16.50
2017-05-15T00:45:29.467Z,16.60
2017-05-15T00:47:56.866Z,16.60
2017-05-15T00:52:58.758Z,16.70
2017-05-15T00:55:26.135Z,16.60
2017-05-15T00:57:53.708Z,16.60
2017-05-15T01:00:21.164Z,16.60
2017-05-15T01:02:48.622Z,16.50
2017-05-15T01:05:17.023Z,16.40
2017-05-15T01:07:44.728Z,16.50
2017-05-15T01:10:12.298Z,16.50
2017-05-15T01:12:39.733Z,16.50
2017-05-15T01:15:07.126Z,16.40
2017-05-15T01:17:34.534Z,16.50
2017-05-15T01:20:01.940Z,16.40
2017-05-15T01:22:29.706Z,16.40
2017-05-15T01:24:57.102Z,16.40
2017-05-15T01:27:24.543Z,16.40
2017-05-15T01:29:52.121Z,16.60
2017-05-15T01:32:20.347Z,16.40
2017-05-15T01:34:48.552Z,16.50
2017-05-15T01:37:16.910Z,16.60
2017-05-15T01:39:44.309Z,16.70
2017-05-15T01:42:11.847Z,16.70
2017-05-15T01:44:39.445Z,16.70
2017-05-15T01:47:06.958Z,16.70
2017-05-15T01:49:34.637Z,16.80
2017-05-15T01:52:02.114Z,16.80
2017-05-15T01:54:30.004Z,17.00
2017-05-15T01:56:58.173Z,17.00
2017-05-15T01:59:25.662Z,17.00
2017-05-15T02:01:53.718Z,16.80
2017-05-15T02:04:21.291Z,16.60
2017-05-15T02:06:48.985Z,16.60
2017-05-15T02:09:16.440Z,16.50
2017-05-15T02:11:44.023Z,16.70
2017-05-15T02:14:11.621Z,16.80
2017-05-15T02:16:39.049Z,16.70
2017-05-15T02:19:06.438Z,16.80
2017-05-15T02:21:34.095Z,16.90
2017-05-15T02:24:01.553Z,17.00
2017-05-15T02:26:28.988Z,16.80
2017-05-15T02:28:56.430Z,16.80
2017-05-15T02:33:52.187Z,16.90
2017-05-15T02:36:19.833Z,16.90
2017-05-15T02:38:47.269Z,17.00
2017-05-15T02:41:14.742Z,16.90
2017-05-15T02:43:43.014Z,16.90
2017-05-15T02:46:11.210Z,16.90
2017-05-15T02:48:38.866Z,16.70
2017-05-15T02:51:06.318Z,16.80
2017-05-15T02:53:33.880Z,16.70
2017-05-15T02:56:01.363Z,16.70
2017-05-15T02:58:29.080Z,16.50
2017-05-15T03:00:56.498Z,16.60
2017-05-15T03:03:24.869Z,16.50
2017-05-15T03:05:52.267Z,16.60
2017-05-15T03:08:19.648Z,16.60
2017-05-15T03:10:47.044Z,16.50
2017-05-15T03:13:14.555Z,16.60
2017-05-15T03:15:41.966Z,16.60
2017-05-15T03:18:09.700Z,16.60
2017-05-15T03:20:37.543Z,16.60
2017-05-15T03:23:05.086Z,16.40
2017-05-15T03:25:32.660Z,16.40
2017-05-15T03:28:01.068Z,16.60
2017-05-15T03:30:28.490Z,16.50
2017-05-15T03:32:55.895Z,16.60
2017-05-15T03:35:23.298Z,16.60
2017-05-15T03:37:50.700Z,16.60
2017-05-15T03:40:18.191Z,16.60
2017-05-15T03:42:45.717Z,16.70
2017-05-15T03:45:13.268Z,16.50
2017-05-15T03:47:40.704Z,16.60
2017-05-15T03:50:08.137Z,16.50
2017-05-15T03:52:35.720Z,16.60
2017-05-15T03:55:03.877Z,16.60
2017-05-15T03:57:31.267Z,16.80
2017-05-15T03:59:58.855Z,16.70
2017-05-15T04:02:26.316Z,16.60
2017-05-15T04:04:54.378Z,16.60
2017-05-15T04:07:21.777Z,16.60
2017-05-15T04:09:49.253Z,16.30
2017-05-15T04:12:16.651Z,16.30
2017-05-15T04:14:44.097Z,16.50
2017-05-15T04:17:12.040Z,16.40
2017-05-15T04:19:40.241Z,16.50
2017-05-15T04:22:07.643Z,16.50
2017-05-15T04:24:35.121Z,16.50
2017-05-15T04:27:02.509Z,16.60
2017-05-15T04:29:30.320Z,16.50
2017-05-15T04:31:57.911Z,16.50
2017-05-15T04:34:27.900Z,16.50
2017-05-15T04:36:55.556Z,16.40
2017-05-15T04:39:23.062Z,16.40
2017-05-15T04:41:50.497Z,16.60
2017-05-15T04:44:18.930Z,16.60
2017-05-15T04:46:46.527Z,16.60
2017-05-15T04:49:14.440Z,16.60
2017-05-15T04:51:41.818Z,16.60
2017-05-15T04:57:15.470Z,16.60
2017-05-15T04:59:45.359Z,16.60
2017-05-15T05:02:15.029Z,16.60
2017-05-15T05:07:24.107Z,16.60
2017-05-15T05:09:58.972Z,16.50
2017-05-15T05:12:28.039Z,16.60
2017-05-15T05:14:55.390Z,16.70
2017-05-15T05:17:22.814Z,16.70
2017-05-15T05:19:51.125Z,16.70
2017-05-15T05:22:45.556Z,16.60
2017-05-15T05:25:21.941Z,16.70
2017-05-15T05:27:54.512Z,16.70
2017-05-15T05:30:41.099Z,16.70
2017-05-15T05:33:20.832Z,16.70
2017-05-15T05:35:59.216Z,16.70
2017-05-15T05:38:37.041Z,16.60
2017-05-15T05:41:10.436Z,16.80
2017-05-15T05:43:58.109Z,16.90
2017-05-15T05:46:25.547Z,17.20
2017-05-15T05:48:52.971Z,17.20
2017-05-15T05:51:20.334Z,17.10
2017-05-15T05:53:47.670Z,17.10
2017-05-15T05:56:27.381Z,16.90
2017-05-15T05:59:09.716Z,17.00
2017-05-15T06:01:49.185Z,17.00
2017-05-15T06:04:43.098Z,17.10
2017-05-15T06:07:22.773Z,17.10
2017-05-15T06:10:02.950Z,17.10
2017-05-15T06:12:49.312Z,17.20
2017-05-15T06:15:28.732Z,17.10
2017-05-15T06:18:09.327Z,17.20
2017-05-15T06:20:36.477Z,17.20
2017-05-15T06:23:24.943Z,17.20
2017-05-15T06:26:20.181Z,17.40
2017-05-15T06:28:48.197Z,17.40
2017-05-15T06:31:15.456Z,17.50
2017-05-15T06:33:42.871Z,17.30
2017-05-15T06:36:10.390Z,17.30
2017-05-15T06:38:50.891Z,17.50
2017-05-15T06:41:30.641Z,17.50
2017-05-15T06:43:57.927Z,17.40
2017-05-15T06:46:25.445Z,17.40
2017-05-15T06:48:52.741Z,17.60
2017-05-15T06:51:20.054Z,17.60
2017-05-15T06:53:47.355Z,17.70
2017-05-15T06:56:14.804Z,17.80
2017-05-15T06:58:42.106Z,17.80
2017-05-15T07:01:09.421Z,18.00
2017-05-15T07:03:36.763Z,17.90
2017-05-15T07:06:04.063Z,18.00
2017-05-15T07:08:31.222Z,18.10
2017-05-15T07:10:58.612Z,18.20
2017-05-15T07:13:26.805Z,18.20
2017-05-15T07:15:54.168Z,18.10
2017-05-15T07:18:21.534Z,18.00
2017-05-15T07:20:49.873Z,18.00
2017-05-15T07:23:17.297Z,18.00
2017-05-15T07:25:45.092Z,18.20
2017-05-15T07:28:12.466Z,18.10
2017-05-15T07:30:39.936Z,18.10
2017-05-15T07:33:08.348Z,18.20
2017-05-15T07:35:35.889Z,18.10
2017-05-15T07:38:04.018Z,18.20
2017-05-15T07:40:31.607Z,18.30
2017-05-15T07:42:59.911Z,18.40
2017-05-15T07:45:27.317Z,18.50
2017-05-15T07:47:55.810Z,18.60
2017-05-15T07:50:23.320Z,18.70
2017-05-15T07:52:51.130Z,19.00
2017-05-15T07:55:19.317Z,19.10
2017-05-15T07:57:47.511Z,19.10
2017-05-15T08:00:14.924Z,19.10
2017-05-15T08:02:42.340Z,19.20
2017-05-15T08:05:09.756Z,19.30
2017-05-15T08:07:38.033Z,19.60
2017-05-15T08:10:06.828Z,19.60
2017-05-15T08:12:34.422Z,19.80
2017-05-15T08:15:01.813Z,20.10
2017-05-15T08:17:29.225Z,20.10
2017-05-15T08:19:56.622Z,20.20
2017-05-15T08:22:24.010Z,20.30
2017-05-15T08:24:51.466Z,20.40
2017-05-15T08:27:19.615Z,20.40
2017-05-15T08:29:47.066Z,20.50
2017-05-15T08:32:14.563Z,20.10
2017-05-15T08:34:41.977Z,20.00
2017-05-15T08:37:10.147Z,19.80
2017-05-15T08:39:37.590Z,19.90
2017-05-15T08:42:04.981Z,20.40
2017-05-15T08:44:33.141Z,20.60
2017-05-15T08:47:01.406Z,20.80
2017-05-15T08:49:28.950Z,20.80
2017-05-15T08:51:56.322Z,21.10
2017-05-15T08:54:23.693Z,21.30
2017-05-15T08:56:51.076Z,21.10
2017-05-15T08:59:18.888Z,21.70
2017-05-15T09:01:46.313Z,22.20
2017-05-15T09:04:13.709Z,23.00
2017-05-15T09:06:41.088Z,23.60
2017-05-15T09:09:10.272Z,24.10
2017-05-15T09:11:37.716Z,25.40
2017-05-15T09:14:05.460Z,27.10
2017-05-15T09:16:32.845Z,27.20
2017-05-15T09:19:00.228Z,28.20
2017-05-15T09:21:28.322Z,28.40
2017-05-15T09:23:55.742Z,28.70
2017-05-15T09:26:23.097Z,28.80
2017-05-15T09:28:51.187Z,29.70
2017-05-15T09:31:18.581Z,29.10
2017-05-15T09:33:45.958Z,27.40
2017-05-15T09:36:13.591Z,27.00
2017-05-15T09:38:41.603Z,27.20
2017-05-15T09:41:09.734Z,28.10
2017-05-15T09:43:37.104Z,27.70
2017-05-15T09:46:04.511Z,26.70
2017-05-15T09:48:31.873Z,26.30
2017-05-15T09:50:59.359Z,25.00
2017-05-15T09:53:26.718Z,24.80
2017-05-15T09:55:54.089Z,27.30
2017-05-15T09:58:21.460Z,27.10
2017-05-15T10:00:48.820Z,27.60
2017-05-15T10:03:16.995Z,27.40
2017-05-15T10:05:44.383Z,30.40
2017-05-15T10:08:11.985Z,31.40
2017-05-15T10:10:39.354Z,31.40
2017-05-15T10:13:06.730Z,30.70
2017-05-15T10:15:34.844Z,30.20
2017-05-15T10:18:02.337Z,30.50
2017-05-15T10:20:29.726Z,31.20
2017-05-15T10:22:57.122Z,29.40
2017-05-15T10:25:24.463Z,29.60
2017-05-15T10:27:51.794Z,28.90
2017-05-15T10:30:19.410Z,29.20
2017-05-15T10:32:46.983Z,28.10
2017-05-15T10:35:15.187Z,29.30
2017-05-15T10:37:42.551Z,30.70
2017-05-15T10:40:09.950Z,32.40
2017-05-15T10:42:37.313Z,33.00
2017-05-15T10:45:04.676Z,31.50
2017-05-15T10:47:32.774Z,30.60
2017-05-15T10:50:00.209Z,31.70
2017-05-15T10:52:28.337Z,31.40
2017-05-15T10:54:56.068Z,30.80
2017-05-15T10:57:23.467Z,31.20
2017-05-15T10:59:50.887Z,31.30
2017-05-15T11:02:18.248Z,30.30
2017-05-15T11:04:45.617Z,30.00
2017-05-15T11:07:13.095Z,30.10
2017-05-15T11:09:40.482Z,30.20
2017-05-15T11:12:08.590Z,29.70
2017-05-15T11:14:36.871Z,28.30
2017-05-15T11:17:04.504Z,27.60
2017-05-15T11:19:32.077Z,26.30
2017-05-15T11:21:59.465Z,26.40
2017-05-15T11:24:26.921Z,26.30
2017-05-15T11:26:55.079Z,25.50
2017-05-15T11:29:22.455Z,25.90
2017-05-15T11:31:49.813Z,26.30
2017-05-15T11:34:17.193Z,26.20
2017-05-15T11:36:45.270Z,26.40
2017-05-15T11:39:20.327Z,26.90
2017-05-15T11:41:47.938Z,27.90
2017-05-15T11:44:15.302Z,27.70
2017-05-15T11:46:42.751Z,25.90
2017-05-15T11:49:11.286Z,24.60
2017-05-15T11:51:38.643Z,23.50
2017-05-15T11:54:06.051Z,23.00
2017-05-15T11:56:33.409Z,22.70
2017-05-15T11:59:01.513Z,22.70
2017-05-15T12:01:28.878Z,22.20
2017-05-15T12:03:57.365Z,22.20
2017-05-15T12:06:25.439Z,22.00
2017-05-15T12:08:52.813Z,22.10
2017-05-15T12:11:20.256Z,22.20
2017-05-15T12:13:47.690Z,22.40
2017-05-15T12:16:15.086Z,22.50
2017-05-15T12:18:42.498Z,22.50
2017-05-15T12:21:09.936Z,22.70
2017-05-15T12:23:37.547Z,23.10
2017-05-15T12:26:05.045Z,23.70
2017-05-15T12:28:33.803Z,24.40
2017-05-15T12:31:01.258Z,24.20
2017-05-15T12:33:29.009Z,24.50
2017-05-15T12:35:56.525Z,24.50
2017-05-15T12:38:23.982Z,25.00
2017-05-15T12:40:51.678Z,24.90
2017-05-15T12:43:19.170Z,24.60
2017-05-15T12:45:47.427Z,24.90
2017-05-15T12:48:14.915Z,25.00
2017-05-15T12:50:42.956Z,24.80
2017-05-15T12:53:10.386Z,24.40
2017-05-15T12:55:37.809Z,24.10
2017-05-15T12:58:05.429Z,24.20
2017-05-15T13:00:32.877Z,24.20
2017-05-15T13:03:00.295Z,24.10
2017-05-15T13:05:28.061Z,24.50
2017-05-15T13:07:55.960Z,24.90
2017-05-15T13:10:23.431Z,24.80
2017-05-15T13:12:50.875Z,24.60
2017-05-15T13:15:18.390Z,24.60
2017-05-15T13:17:46.512Z,24.50
2017-05-15T13:20:14.043Z,24.30
2017-05-15T13:22:41.427Z,24.30
2017-05-15T13:25:08.896Z,24.80
2017-05-15T13:27:36.454Z,24.80
2017-05-15T13:30:04.909Z,24.70
2017-05-15T13:32:32.339Z,25.00
2017-05-15T13:35:00.135Z,25.50
2017-05-15T13:37:27.528Z,25.50
2017-05-15T13:39:55.113Z,25.80
2017-05-15T13:42:22.604Z,25.40
2017-05-15T13:44:51.046Z,25.80
2017-05-15T13:47:18.574Z,25.60
2017-05-15T13:49:46.725Z,25.80
2017-05-15T13:52:14.620Z,25.70
2017-05-15T13:54:42.109Z,25.20
2017-05-15T13:57:09.636Z,24.10
2017-05-15T13:59:37.900Z,22.50
2017-05-15T14:02:06.155Z,21.80
2017-05-15T14:04:34.575Z,20.60
2017-05-15T14:07:02.052Z,20.40
2017-05-15T14:09:29.479Z,19.50
2017-05-15T14:11:56.935Z,18.60
2017-05-15T14:14:24.359Z,18.40
2017-05-15T14:16:52.761Z,18.40
2017-05-15T14:19:20.531Z,18.50
2017-05-15T14:21:48.694Z,18.50
2017-05-15T14:24:16.874Z,18.70
2017-05-15T14:26:45.539Z,18.70
2017-05-15T14:29:13.231Z,18.70
2017-05-15T14:31:40.653Z,18.80
2017-05-15T14:34:08.244Z,19.00
2017-05-15T14:36:36.386Z,18.60
2017-05-15T14:39:03.825Z,18.10
2017-05-15T14:41:31.435Z,18.00
2017-05-15T14:43:59.578Z,17.80
2017-05-15T14:46:26.980Z,18.00
2017-05-15T14:48:54.371Z,18.10
2017-05-15T14:51:22.494Z,18.30
2017-05-15T14:53:49.931Z,19.10
2017-05-15T14:56:18.063Z,19.40
2017-05-15T14:58:45.449Z,19.90
2017-05-15T15:01:13.048Z,20.10
2017-05-15T15:03:40.587Z,20.20
2017-05-15T15:06:07.993Z,20.30
2017-05-15T15:08:35.545Z,20.70
2017-05-15T15:11:02.996Z,20.90
2017-05-15T15:13:31.244Z,21.00
2017-05-15T15:15:58.680Z,20.70
2017-05-15T15:18:26.817Z,20.50
2017-05-15T15:20:54.317Z,20.80
2017-05-15T15:23:22.465Z,21.20
2017-05-15T15:25:49.929Z,21.60
2017-05-15T15:28:17.769Z,21.60
2017-05-15T15:30:45.192Z,21.90
2017-05-15T15:33:13.183Z,22.20
2017-05-15T15:35:41.387Z,21.80
2017-05-15T15:38:08.755Z,21.40
2017-05-15T15:40:36.129Z,21.40
2017-05-15T15:43:04.249Z,21.60
2017-05-15T15:45:32.260Z,21.60
2017-05-15T15:47:59.685Z,21.50
2017-05-15T15:50:27.209Z,21.50
2017-05-15T15:52:55.738Z,21.50
2017-05-15T15:55:23.741Z,21.60
2017-05-15T15:57:51.589Z,21.30
2017-05-15T16:00:19.016Z,21.40
2017-05-15T16:02:46.444Z,21.50
2017-05-15T16:05:13.918Z,21.70
2017-05-15T16:07:41.362Z,21.80
2017-05-15T16:10:08.721Z,21.70
2017-05-15T16:12:36.574Z,21.40
2017-05-15T16:15:03.965Z,21.10
2017-05-15T16:17:31.611Z,20.90
2017-05-15T16:19:59.069Z,20.70
2017-05-15T16:22:26.542Z,20.70
2017-05-15T16:24:54.951Z,20.60
2017-05-15T16:27:23.150Z,20.50
2017-05-15T16:29:50.585Z,20.50
2017-05-15T16:32:18.003Z,20.40
2017-05-15T16:34:45.426Z,20.40
2017-05-15T16:37:13.088Z,20.30
2017-05-15T16:39:40.870Z,20.30
2017-05-15T16:42:08.552Z,20.40
2017-05-15T16:44:36.626Z,20.60
2017-05-15T16:47:04.070Z,20.60
2017-05-15T16:49:32.205Z,20.60
2017-05-15T16:51:59.659Z,20.60
2017-05-15T16:54:27.212Z,20.50
2017-05-15T16:56:55.594Z,20.50
2017-05-15T16:59:23.018Z,20.50
2017-05-15T17:01:51.122Z,20.20
2017-05-15T17:04:18.625Z,20.10
2017-05-15T17:06:46.026Z,20.00
2017-05-15T17:09:13.593Z,20.00
2017-05-15T17:11:40.994Z,19.90
2017-05-15T17:14:09.017Z,19.90
2017-05-15T17:16:36.563Z,19.90
2017-05-15T17:19:04.288Z,19.90
2017-05-15T17:21:32.160Z,19.80
2017-05-15T17:24:00.355Z,19.60
2017-05-15T17:26:29.033Z,19.40
2017-05-15T17:28:57.666Z,19.10
2017-05-15T17:31:25.650Z,19.10
2017-05-15T17:33:54.232Z,19.00
2017-05-15T17:36:23.018Z,19.00
2017-05-15T17:38:51.272Z,18.90
2017-05-15T17:41:20.292Z,19.00
2017-05-15T17:43:49.188Z,19.00
2017-05-15T17:46:17.764Z,19.00
2017-05-15T17:48:45.637Z,19.00
2017-05-15T17:51:13.700Z,19.00
2017-05-15T17:53:42.609Z,19.00
2017-05-15T17:56:10.130Z,19.00
2017-05-15T17:58:37.855Z,19.00
2017-05-15T18:01:05.387Z,19.00
2017-05-15T18:03:33.240Z,19.00
2017-05-15T18:06:01.564Z,18.90
2017-05-15T18:08:29.172Z,18.90
2017-05-15T18:10:56.607Z,19.00
2017-05-15T18:13:24.562Z,18.80
2017-05-15T18:15:52.157Z,18.60
2017-05-15T18:18:19.884Z,18.50
2017-05-15T18:20:47.492Z,18.60
2017-05-15T18:23:15.078Z,18.50
2017-05-15T18:25:43.219Z,18.30
2017-05-15T18:28:11.587Z,18.30
2017-05-15T18:30:40.218Z,18.20
2017-05-15T18:33:08.146Z,18.10
2017-05-15T18:35:36.453Z,18.10
2017-05-15T18:38:04.050Z,18.00
2017-05-15T18:40:32.276Z,18.00
2017-05-15T18:43:00.486Z,18.10
2017-05-15T18:45:27.957Z,18.20
2017-05-15T18:47:56.091Z,18.20
2017-05-15T18:50:24.342Z,18.30
2017-05-15T18:52:52.183Z,18.30
2017-05-15T18:55:19.747Z,18.30
2017-05-15T18:57:48.758Z,18.30
2017-05-15T19:00:17.191Z,18.20
2017-05-15T19:02:44.715Z,18.10
2017-05-15T19:05:12.956Z,18.10
2017-05-15T19:07:40.453Z,18.20
2017-05-15T19:10:08.693Z,18.20
2017-05-15T19:12:36.155Z,18.20
2017-05-15T19:15:03.710Z,18.20
2017-05-15T19:17:31.476Z,18.20
2017-05-15T19:19:59.086Z,18.10
2017-05-15T19:22:26.797Z,18.10
2017-05-15T19:24:54.246Z,18.10
2017-05-15T19:27:21.755Z,17.90
2017-05-15T19:29:50.113Z,17.70
2017-05-15T19:32:18.150Z,17.60
2017-05-15T19:34:45.997Z,17.30
2017-05-15T19:37:14.518Z,17.10
2017-05-15T19:39:41.987Z,17.00
2017-05-15T19:42:09.460Z,17.00
2017-05-15T19:44:37.686Z,16.90
2017-05-15T19:47:05.392Z,17.00
2017-05-15T19:49:33.613Z,17.00
2017-05-15T19:52:01.549Z,17.00
2017-05-15T19:54:29.744Z,16.90
2017-05-15T19:56:57.160Z,17.00
2017-05-15T19:59:25.648Z,16.90
2017-05-15T20:01:53.785Z,16.90
2017-05-15T20:04:21.624Z,16.90
2017-05-15T20:06:49.356Z,16.90
2017-05-15T20:09:16.822Z,17.00
2017-05-15T20:11:44.576Z,16.90
2017-05-15T20:14:12.671Z,16.90
2017-05-15T20:16:40.310Z,16.90
2017-05-15T20:19:08.079Z,16.90
2017-05-15T20:21:35.949Z,17.00
2017-05-15T20:24:03.401Z,17.10
2017-05-15T20:26:30.960Z,17.10
2017-05-15T20:28:58.417Z,17.10
2017-05-15T20:31:25.882Z,17.20
2017-05-15T20:33:53.386Z,17.20
2017-05-15T20:36:20.986Z,17.30
2017-05-15T20:38:48.444Z,17.40
2017-05-15T20:41:16.878Z,17.30
2017-05-15T20:43:44.369Z,17.30
2017-05-15T20:46:13.070Z,17.30
2017-05-15T20:48:40.985Z,17.30
2017-05-15T20:51:08.416Z,17.40
2017-05-15T20:53:36.003Z,17.30
2017-05-15T20:56:03.676Z,17.40
2017-05-15T20:58:31.345Z,17.30
2017-05-15T21:00:58.784Z,17.30
2017-05-15T21:03:27.078Z,17.30
2017-05-15T21:05:54.499Z,17.30
2017-05-15T21:08:21.937Z,17.20
2017-05-15T21:10:49.521Z,17.10
2017-05-15T21:13:17.151Z,17.10
2017-05-15T21:15:44.644Z,17.00
2017-05-15T21:18:12.973Z,16.90
2017-05-15T21:20:40.604Z,16.90
2017-05-15T21:23:09.395Z,16.80
2017-05-15T21:25:37.616Z,16.70
2017-05-15T21:28:05.055Z,16.80
2017-05-15T21:30:32.575Z,16.70
2017-05-15T21:33:00.871Z,16.60
2017-05-15T21:35:29.264Z,16.60
2017-05-15T21:37:56.706Z,16.60
2017-05-15T21:40:24.217Z,16.50
2017-05-15T21:42:51.801Z,16.40
2017-05-15T21:45:19.254Z,16.40
2017-05-15T21:47:46.679Z,16.30
2017-05-15T21:50:14.125Z,16.20
2017-05-15T21:52:41.511Z,16.20
2017-05-15T21:55:08.962Z,16.20
2017-05-15T21:57:36.393Z,16.20
2017-05-15T22:00:03.889Z,16.10
2017-05-15T22:02:32.215Z,16.00
2017-05-15T22:04:59.715Z,16.00
2017-05-15T22:07:27.272Z,16.00
2017-05-15T22:09:54.678Z,15.90
2017-05-15T22:12:29.032Z,15.80
2017-05-15T22:14:56.436Z,15.80
2017-05-15T22:17:24.626Z,15.80
2017-05-15T22:19:52.090Z,15.70
2017-05-15T22:22:19.518Z,15.70
2017-05-15T22:24:47.698Z,15.70
2017-05-15T22:27:15.107Z,15.70
2017-05-15T22:29:42.590Z,15.70
2017-05-15T22:32:10.041Z,15.60
2017-05-15T22:34:37.501Z,15.70
2017-05-15T22:37:05.156Z,15.70
2017-05-15T22:39:32.570Z,15.70
2017-05-15T22:41:59.978Z,15.60
2017-05-15T22:44:27.480Z,15.70
2017-05-15T22:46:54.911Z,15.70
2017-05-15T22:49:22.393Z,15.70
2017-05-15T22:51:49.990Z,15.60
2017-05-15T22:54:17.428Z,15.60
2017-05-15T22:56:44.896Z,15.60
2017-05-15T22:59:12.418Z,15.60
2017-05-15T23:01:40.585Z,15.50
2017-05-15T23:04:08.046Z,15.50
2017-05-15T23:06:35.804Z,15.50
2017-05-15T23:09:03.333Z,15.50
2017-05-15T23:11:31.732Z,15.40
2017-05-15T23:13:59.246Z,15.40
2017-05-15T23:16:26.880Z,15.40
2017-05-15T23:18:54.312Z,15.40
2017-05-15T23:21:22.454Z,15.40
2017-05-15T23:23:49.898Z,15.40
2017-05-15T23:26:17.313Z,15.40
2017-05-15T23:28:44.895Z,15.30
2017-05-15T23:31:12.331Z,15.40
2017-05-15T23:33:39.905Z,15.40
2017-05-15T23:36:07.358Z,15.40
2017-05-15T23:38:34.777Z,15.30
2017-05-15T23:41:02.964Z,15.30
2017-05-15T23:43:30.528Z,15.20
2017-05-15T23:45:57.961Z,15.20
2017-05-15T23:48:26.157Z,15.30
2017-05-15T23:50:53.817Z,15.30
2017-05-15T23:53:22.422Z,15.20
2017-05-15T23:55:49.840Z,15.30
2017-05-15T23:58:18.175Z,15.30
